createdAt,value
2022-11-21T00:01:26.220Z,1.65
2022-11-21T00:03:53.347Z,1.83
2022-11-21T00:06:20.955Z,1.73
2022-11-21T00:08:47.946Z,1.63
2022-11-21T00:11:15.752Z,1.80
2022-11-21T00:13:43.388Z,2.08
2022-11-21T00:16:14.519Z,1.85
2022-11-21T00:18:42.429Z,1.88
2022-11-21T00:21:14.592Z,1.80
2022-11-21T00:23:43.264Z,1.90
2022-11-21T00:26:12.345Z,1.98
2022-11-21T00:28:39.587Z,1.80
2022-11-21T00:31:07.463Z,2.10
2022-11-21T00:33:39.046Z,1.70
2022-11-21T00:36:08.673Z,1.90
2022-11-21T00:38:36.418Z,2.22
2022-11-21T00:41:03.427Z,1.90
2022-11-21T00:43:30.340Z,1.75
2022-11-21T00:45:58.588Z,1.77
2022-11-21T00:48:25.509Z,2.13
2022-11-21T00:50:52.432Z,1.88
2022-11-21T00:53:19.327Z,1.83
2022-11-21T00:55:46.209Z,1.60
2022-11-21T00:58:13.097Z,1.90
2022-11-21T01:00:40.052Z,1.80
2022-11-21T01:03:06.986Z,2.22
2022-11-21T01:05:33.854Z,1.85
2022-11-21T01:08:00.937Z,2.40
2022-11-21T01:10:27.947Z,2.05
2022-11-21T01:12:55.929Z,1.92
2022-11-21T01:15:22.994Z,2.03
2022-11-21T01:17:49.954Z,2.03
2022-11-21T01:20:16.975Z,1.73
2022-11-21T01:22:46.697Z,1.95
2022-11-21T01:25:13.854Z,1.90
2022-11-21T01:27:40.733Z,1.88
2022-11-21T01:30:08.360Z,1.75
2022-11-21T01:32:35.360Z,1.80
2022-11-21T01:35:02.214Z,2.00
2022-11-21T01:37:29.090Z,1.80
2022-11-21T01:39:56.059Z,2.17
2022-11-21T01:42:23.097Z,2.30
2022-11-21T01:44:53.580Z,1.63
2022-11-21T01:47:22.621Z,2.33
2022-11-21T01:49:51.899Z,2.17
2022-11-21T01:52:30.534Z,1.90
2022-11-21T01:55:08.033Z,1.80
2022-11-21T01:57:38.010Z,1.95
2022-11-21T02:00:15.992Z,2.10
2022-11-21T02:02:55.311Z,1.73
2022-11-21T02:05:29.696Z,1.92
2022-11-21T02:08:03.828Z,1.70
2022-11-21T02:10:30.915Z,1.83
2022-11-21T02:13:00.223Z,1.90
2022-11-21T02:15:29.853Z,1.65
2022-11-21T02:17:57.057Z,1.70
2022-11-21T02:20:27.272Z,1.88
2022-11-21T02:23:02.006Z,2.08
2022-11-21T02:25:37.008Z,1.80
2022-11-21T02:28:12.383Z,1.95
2022-11-21T02:30:41.922Z,1.67
2022-11-21T02:33:09.943Z,1.80
2022-11-21T02:35:37.297Z,1.70
2022-11-21T02:38:22.522Z,1.65
2022-11-21T02:41:00.672Z,1.80
2022-11-21T02:43:42.094Z,2.30
2022-11-21T02:46:08.984Z,1.90
2022-11-21T02:48:38.489Z,1.70
2022-11-21T02:51:05.617Z,2.20
2022-11-21T02:53:32.886Z,1.85
2022-11-21T02:55:59.743Z,1.77
2022-11-21T02:58:27.080Z,1.60
2022-11-21T03:00:55.303Z,1.67
2022-11-21T03:03:22.833Z,1.65
2022-11-21T03:05:49.961Z,1.80
2022-11-21T03:08:17.111Z,2.25
2022-11-21T03:10:43.958Z,1.65
2022-11-21T03:13:10.922Z,1.75
2022-11-21T03:15:37.801Z,1.90
2022-11-21T03:18:05.420Z,1.70
2022-11-21T03:20:34.813Z,1.70
2022-11-21T03:23:02.345Z,1.95
2022-11-21T03:25:32.266Z,2.22
2022-11-21T03:27:59.182Z,1.80
2022-11-21T03:30:28.307Z,1.75
2022-11-21T03:32:58.556Z,2.20
2022-11-21T03:35:26.606Z,1.80
2022-11-21T03:37:53.648Z,2.00
2022-11-21T03:40:20.552Z,1.95
2022-11-21T03:42:47.404Z,1.88
2022-11-21T03:45:14.320Z,2.15
2022-11-21T03:47:41.699Z,2.17
2022-11-21T03:50:08.903Z,2.10
2022-11-21T03:52:35.767Z,1.83
2022-11-21T03:55:02.786Z,1.95
2022-11-21T03:57:29.707Z,1.85
2022-11-21T03:59:56.507Z,2.00
2022-11-21T04:02:23.447Z,1.85
2022-11-21T04:04:50.282Z,1.90
2022-11-21T04:07:17.243Z,2.03
2022-11-21T04:09:44.195Z,1.98
2022-11-21T04:12:11.021Z,1.90
2022-11-21T04:14:38.011Z,1.92
2022-11-21T04:17:05.046Z,1.85
2022-11-21T04:19:31.930Z,2.15
2022-11-21T04:22:00.616Z,1.95
2022-11-21T04:24:29.852Z,2.08
2022-11-21T04:26:56.953Z,2.17
2022-11-21T04:29:23.858Z,1.90
2022-11-21T04:31:50.716Z,2.08
2022-11-21T04:34:17.775Z,1.90
2022-11-21T04:36:44.737Z,1.95
2022-11-21T04:39:13.472Z,1.83
2022-11-21T04:41:40.364Z,1.70
2022-11-21T04:44:07.556Z,2.15
2022-11-21T04:46:34.473Z,1.85
2022-11-21T04:49:01.465Z,2.03
2022-11-21T04:51:28.368Z,1.88
2022-11-21T04:53:55.229Z,2.00
2022-11-21T04:56:22.092Z,2.25
2022-11-21T04:58:53.544Z,1.80
2022-11-21T05:01:20.451Z,2.45
2022-11-21T05:03:47.370Z,1.92
2022-11-21T05:06:14.319Z,2.00
2022-11-21T05:08:41.208Z,1.70
2022-11-21T05:11:28.236Z,2.00
2022-11-21T05:13:55.494Z,1.80
2022-11-21T05:16:22.394Z,2.28
2022-11-21T05:18:49.273Z,1.85
2022-11-21T05:21:16.365Z,2.30
2022-11-21T05:23:43.217Z,2.20
2022-11-21T05:26:10.139Z,2.40
2022-11-21T05:28:37.041Z,2.40
2022-11-21T05:31:03.918Z,2.28
2022-11-21T05:33:30.762Z,2.40
2022-11-21T05:35:57.555Z,2.30
2022-11-21T05:38:26.780Z,2.08
2022-11-21T05:40:53.695Z,2.55
2022-11-21T05:43:38.910Z,2.28
2022-11-21T05:46:06.298Z,2.20
2022-11-21T05:48:34.328Z,2.17
2022-11-21T05:51:01.253Z,2.50
2022-11-21T05:53:28.272Z,2.33
2022-11-21T05:55:55.153Z,2.40
2022-11-21T05:58:22.694Z,2.47
2022-11-21T06:00:49.631Z,3.25
2022-11-21T06:03:28.387Z,2.45
2022-11-21T06:06:07.626Z,2.90
2022-11-21T06:08:41.558Z,2.30
2022-11-21T06:11:12.223Z,2.80
2022-11-21T06:13:39.793Z,2.67
2022-11-21T06:16:15.981Z,2.15
2022-11-21T06:18:50.748Z,2.35
2022-11-21T06:21:22.025Z,2.50
2022-11-21T06:23:53.886Z,2.80
2022-11-21T06:26:24.935Z,2.70
2022-11-21T06:28:52.152Z,2.55
2022-11-21T06:31:23.288Z,2.70
2022-11-21T06:33:56.198Z,2.80
2022-11-21T06:36:24.098Z,2.53
2022-11-21T06:38:55.156Z,2.50
2022-11-21T06:41:26.288Z,2.33
2022-11-21T06:43:53.513Z,3.10
2022-11-21T06:46:21.664Z,2.63
2022-11-21T06:48:48.600Z,2.53
2022-11-21T06:51:24.541Z,2.88
2022-11-21T06:53:59.650Z,3.80
2022-11-21T06:56:29.585Z,2.60
2022-11-21T06:58:57.284Z,2.38
2022-11-21T07:01:25.251Z,3.25
2022-11-21T07:03:53.582Z,3.40
2022-11-21T07:06:21.022Z,2.80
2022-11-21T07:08:52.476Z,3.03
2022-11-21T07:11:27.039Z,3.08
2022-11-21T07:13:54.796Z,4.75
2022-11-21T07:16:21.718Z,6.35
2022-11-21T07:18:48.721Z,6.45
2022-11-21T07:21:15.675Z,5.45
2022-11-21T07:23:42.769Z,3.70
2022-11-21T07:26:11.281Z,5.38
2022-11-21T07:28:38.685Z,3.60
2022-11-21T07:31:12.906Z,3.50
2022-11-21T07:33:43.184Z,4.80
2022-11-21T07:36:11.827Z,3.95
2022-11-21T07:38:38.788Z,7.43
2022-11-21T07:41:05.652Z,4.47
2022-11-21T07:43:32.641Z,4.85
2022-11-21T07:45:59.562Z,4.55
2022-11-21T07:48:26.647Z,4.75
2022-11-21T07:50:53.545Z,4.95
2022-11-21T07:53:20.506Z,6.07
2022-11-21T07:55:50.007Z,5.35
2022-11-21T07:58:18.064Z,6.45
2022-11-21T08:00:44.995Z,4.72
2022-11-21T08:03:13.726Z,5.18
2022-11-21T08:05:43.578Z,5.55
2022-11-21T08:08:13.436Z,4.03
2022-11-21T08:10:46.015Z,4.35
2022-11-21T08:13:14.035Z,5.10
2022-11-21T08:15:41.642Z,4.68
2022-11-21T08:18:14.459Z,5.93
2022-11-21T08:20:42.763Z,8.48
2022-11-21T08:23:10.839Z,5.95
2022-11-21T08:25:39.893Z,5.78
2022-11-21T08:28:09.663Z,4.03
2022-11-21T08:30:38.492Z,7.57
2022-11-21T08:33:06.923Z,6.32
2022-11-21T08:35:38.234Z,6.45
2022-11-21T08:38:06.823Z,5.95
2022-11-21T08:40:35.433Z,5.80
2022-11-21T08:43:06.286Z,4.50
2022-11-21T08:45:37.677Z,6.85
2022-11-21T08:48:11.189Z,9.85
2022-11-21T08:50:38.286Z,6.07
2022-11-21T08:53:05.338Z,6.00
2022-11-21T08:55:32.510Z,12.35
2022-11-21T08:57:59.486Z,8.00
2022-11-21T09:00:29.006Z,6.28
2022-11-21T09:02:56.035Z,8.63
2022-11-21T09:05:23.171Z,12.15
2022-11-21T09:07:59.373Z,7.15
2022-11-21T09:10:27.377Z,8.65
2022-11-21T09:12:57.291Z,7.00
2022-11-21T09:15:42.584Z,5.13
2022-11-21T09:18:12.081Z,7.05
2022-11-21T09:20:45.031Z,6.75
2022-11-21T09:23:15.133Z,8.55
2022-11-21T09:25:45.497Z,11.98
2022-11-21T09:28:14.204Z,6.97
2022-11-21T09:30:42.696Z,7.65
2022-11-21T09:33:16.830Z,7.00
2022-11-21T09:35:44.603Z,8.88
2022-11-21T09:38:11.789Z,7.97
2022-11-21T09:40:46.010Z,8.38
2022-11-21T09:43:44.704Z,6.88
2022-11-21T09:46:17.503Z,8.52
2022-11-21T09:49:05.324Z,14.65
2022-11-21T09:51:38.668Z,6.93
2022-11-21T09:54:31.715Z,7.43
2022-11-21T09:57:00.211Z,6.10
2022-11-21T09:59:37.098Z,7.10
2022-11-21T10:02:24.571Z,9.50
2022-11-21T10:04:52.697Z,7.05
2022-11-21T10:07:32.249Z,7.57
2022-11-21T10:10:20.314Z,6.25
2022-11-21T10:12:56.752Z,9.85
2022-11-21T10:15:41.771Z,5.93
2022-11-21T10:18:39.705Z,4.68
2022-11-21T10:21:24.649Z,5.53
2022-11-21T10:23:54.403Z,7.00
2022-11-21T10:26:41.644Z,11.27
2022-11-21T10:29:26.067Z,5.00
2022-11-21T10:32:01.811Z,6.70
2022-11-21T10:34:40.571Z,4.57
2022-11-21T10:37:45.214Z,5.90
2022-11-21T10:40:40.962Z,5.75
2022-11-21T10:43:43.437Z,5.80
2022-11-21T10:46:12.534Z,6.93
2022-11-21T10:48:39.523Z,5.85
2022-11-21T10:51:24.495Z,4.97
2022-11-21T10:54:28.375Z,6.28
2022-11-21T10:57:15.497Z,4.53
2022-11-21T11:00:26.543Z,7.18
2022-11-21T11:03:09.232Z,4.78
2022-11-21T11:05:41.566Z,6.45
2022-11-21T11:08:14.909Z,6.22
2022-11-21T11:10:46.299Z,4.43
2022-11-21T11:13:46.927Z,7.05
2022-11-21T11:16:23.887Z,4.53
2022-11-21T11:19:01.924Z,6.03
2022-11-21T11:21:50.832Z,4.50
2022-11-21T11:24:17.696Z,5.25
2022-11-21T11:26:50.115Z,4.70
2022-11-21T11:29:30.599Z,4.68
2022-11-21T11:32:03.828Z,4.20
2022-11-21T11:34:42.022Z,4.43
2022-11-21T11:37:21.133Z,14.93
2022-11-21T11:40:13.933Z,3.83
2022-11-21T11:43:11.401Z,4.88
2022-11-21T11:46:53.586Z,5.22
2022-11-21T11:50:11.427Z,4.60
2022-11-21T11:53:06.912Z,6.45
2022-11-21T11:55:44.551Z,5.38
2022-11-21T11:58:49.623Z,5.13
2022-11-21T12:01:53.087Z,5.22
2022-11-21T12:04:23.909Z,5.70
2022-11-21T12:10:12.979Z,5.53
2022-11-21T12:12:49.396Z,5.85
2022-11-21T12:15:48.976Z,4.13
2022-11-21T12:18:15.874Z,4.22
2022-11-21T12:21:00.726Z,4.03
2022-11-21T12:24:02.156Z,6.97
2022-11-21T12:26:39.696Z,7.35
2022-11-21T12:29:40.938Z,4.68
2022-11-21T12:33:00.219Z,8.02
2022-11-21T12:35:47.746Z,11.15
2022-11-21T12:38:54.012Z,6.45
2022-11-21T12:42:13.564Z,7.35
2022-11-21T12:45:29.460Z,4.53
2022-11-21T12:48:33.049Z,3.53
2022-11-21T12:51:51.975Z,5.65
2022-11-21T12:55:01.348Z,8.65
2022-11-21T12:58:01.922Z,6.15
2022-11-21T13:00:31.875Z,9.68
2022-11-21T13:03:30.456Z,3.70
2022-11-21T13:05:59.430Z,8.00
2022-11-21T13:08:35.419Z,7.43
2022-11-21T13:11:59.267Z,6.47
2022-11-21T13:14:42.919Z,6.43
2022-11-21T13:17:30.799Z,6.15
2022-11-21T13:20:19.746Z,6.22
2022-11-21T13:22:47.256Z,8.95
2022-11-21T13:25:14.997Z,8.77
2022-11-21T13:27:43.864Z,6.85
2022-11-21T13:30:15.178Z,7.60
2022-11-21T13:32:54.876Z,7.50
2022-11-21T13:35:21.839Z,6.00
2022-11-21T13:38:06.451Z,7.07
2022-11-21T13:40:40.116Z,6.05
2022-11-21T13:45:59.616Z,7.75
2022-11-21T13:48:32.089Z,4.72
2022-11-21T13:51:16.728Z,4.22
2022-11-21T13:54:20.964Z,7.50
2022-11-21T13:57:15.858Z,7.43
2022-11-21T14:00:06.771Z,5.93
2022-11-21T14:03:30.802Z,4.88
2022-11-21T14:06:32.934Z,2.88
2022-11-21T14:09:24.410Z,2.97
2022-11-21T14:12:01.783Z,5.32
2022-11-21T14:14:54.806Z,2.75
2022-11-21T14:17:47.355Z,2.78
2022-11-21T14:20:26.945Z,6.22
2022-11-21T14:23:03.462Z,2.20
2022-11-21T14:25:41.771Z,2.28
2022-11-21T14:28:34.053Z,4.65
2022-11-21T14:31:09.596Z,5.53
2022-11-21T14:33:49.930Z,3.30
2022-11-21T14:36:30.043Z,2.55
2022-11-21T14:39:39.663Z,4.38
2022-11-21T14:42:03.440Z,2.70
2022-11-21T14:44:33.035Z,2.75
2022-11-21T14:47:25.921Z,3.22
2022-11-21T14:49:56.972Z,3.38
2022-11-21T14:52:34.348Z,3.33
2022-11-21T14:55:29.122Z,2.80
2022-11-21T14:57:55.432Z,4.80
2022-11-21T15:00:58.115Z,2.20
2022-11-21T15:03:23.890Z,3.17
2022-11-21T15:06:06.323Z,2.35
2022-11-21T15:11:59.376Z,5.80
2022-11-21T15:14:59.366Z,2.60
2022-11-21T15:17:31.373Z,2.97
2022-11-21T15:20:19.978Z,4.10
2022-11-21T15:22:54.157Z,2.83
2022-11-21T15:25:28.501Z,4.80
2022-11-21T15:28:02.381Z,2.63
2022-11-21T15:30:32.389Z,1.48
2022-11-21T15:33:08.321Z,2.47
2022-11-21T15:35:55.101Z,3.67
2022-11-21T15:38:31.149Z,3.05
2022-11-21T15:41:03.767Z,2.65
2022-11-21T15:43:40.785Z,1.50
2022-11-21T15:46:22.433Z,2.08
2022-11-21T15:48:57.758Z,1.85
2022-11-21T15:54:33.510Z,1.58
2022-11-21T15:57:00.502Z,2.55
2022-11-21T15:59:27.759Z,1.50
2022-11-21T16:01:54.952Z,2.22
2022-11-21T16:04:25.528Z,3.38
2022-11-21T16:06:54.220Z,1.48
2022-11-21T16:09:21.511Z,3.28
2022-11-21T16:11:48.432Z,2.55
2022-11-21T16:14:18.507Z,1.90
2022-11-21T16:16:50.938Z,2.42
2022-11-21T16:19:18.016Z,2.17
2022-11-21T16:21:45.233Z,2.67
2022-11-21T16:24:12.155Z,2.15
2022-11-21T16:26:39.346Z,3.10
2022-11-21T16:29:06.380Z,1.92
2022-11-21T16:31:34.202Z,1.92
2022-11-21T16:34:01.383Z,3.25
2022-11-21T16:36:31.109Z,5.72
2022-11-21T16:39:05.194Z,3.05
2022-11-21T16:41:35.376Z,1.73
2022-11-21T16:44:02.627Z,4.10
2022-11-21T16:46:29.658Z,1.73
2022-11-21T16:49:02.523Z,1.42
2022-11-21T16:51:30.464Z,1.67
2022-11-21T16:54:00.654Z,1.40
2022-11-21T16:56:28.657Z,3.10
2022-11-21T16:58:56.242Z,1.98
2022-11-21T17:01:26.369Z,2.05
2022-11-21T17:03:53.805Z,2.65
2022-11-21T17:06:27.156Z,1.98
2022-11-21T17:08:54.484Z,2.00
2022-11-21T17:11:29.178Z,2.33
2022-11-21T17:14:05.172Z,1.20
2022-11-21T17:16:34.443Z,1.77
2022-11-21T17:19:04.313Z,1.60
2022-11-21T17:21:32.066Z,2.42
2022-11-21T17:23:59.620Z,2.03
2022-11-21T17:26:29.481Z,2.40
2022-11-21T17:28:59.605Z,3.72
2022-11-21T17:31:27.688Z,2.10
2022-11-21T17:33:57.595Z,2.10
2022-11-21T17:36:27.642Z,5.78
2022-11-21T17:38:58.179Z,2.13
2022-11-21T17:41:28.404Z,4.80
2022-11-21T17:43:58.018Z,4.20
2022-11-21T17:46:26.187Z,3.17
2022-11-21T17:48:58.287Z,3.90
2022-11-21T17:51:34.947Z,5.57
2022-11-21T17:54:02.921Z,3.13
2022-11-21T17:56:34.056Z,4.00
2022-11-21T17:59:01.812Z,6.25
2022-11-21T18:01:29.599Z,4.20
2022-11-21T18:04:11.699Z,5.82
2022-11-21T18:06:41.741Z,3.22
2022-11-21T18:09:11.363Z,5.90
2022-11-21T18:11:42.600Z,4.60
2022-11-21T18:14:12.453Z,3.70
2022-11-21T18:16:43.640Z,2.95
2022-11-21T18:19:14.820Z,2.20
2022-11-21T18:21:42.152Z,1.40
2022-11-21T18:24:09.476Z,2.45
2022-11-21T18:26:39.069Z,2.55
2022-11-21T18:31:56.781Z,1.65
2022-11-21T18:34:23.750Z,3.60
2022-11-21T18:36:50.774Z,1.95
2022-11-21T18:39:17.745Z,3.08
2022-11-21T18:41:44.933Z,2.17
2022-11-21T18:44:19.983Z,2.72
2022-11-21T18:46:48.860Z,1.45
2022-11-21T18:49:15.790Z,1.38
2022-11-21T18:51:42.705Z,1.15
2022-11-21T18:54:11.280Z,2.20
2022-11-21T18:56:39.966Z,3.15
2022-11-21T18:59:07.699Z,1.35
2022-11-21T19:01:37.029Z,2.28
2022-11-21T19:04:04.419Z,1.45
2022-11-21T19:06:31.960Z,2.10
2022-11-21T19:08:59.447Z,1.58
2022-11-21T19:11:30.457Z,2.45
2022-11-21T19:14:00.708Z,2.17
2022-11-21T19:16:31.359Z,1.42
2022-11-21T19:21:47.169Z,1.27
2022-11-21T19:24:15.550Z,1.50
2022-11-21T19:26:43.876Z,1.48
2022-11-21T19:29:11.497Z,2.42
2022-11-21T19:31:45.134Z,1.15
2022-11-21T19:34:17.050Z,1.83
2022-11-21T19:36:45.458Z,2.45
2022-11-21T19:39:13.097Z,1.75
2022-11-21T19:41:40.468Z,2.05
2022-11-21T19:44:07.486Z,1.10
2022-11-21T19:46:38.193Z,1.02
2022-11-21T19:49:08.325Z,1.75
2022-11-21T19:51:39.660Z,1.65
2022-11-21T19:54:08.297Z,1.98
2022-11-21T19:56:36.462Z,1.50
2022-11-21T19:59:04.561Z,1.23
2022-11-21T20:01:35.007Z,2.90
2022-11-21T20:04:04.607Z,1.75
2022-11-21T20:06:38.921Z,1.55
2022-11-21T20:09:15.699Z,2.08
2022-11-21T20:11:46.281Z,1.83
2022-11-21T20:14:21.876Z,1.50
2022-11-21T20:17:00.964Z,1.33
2022-11-21T20:19:29.538Z,1.30
2022-11-21T20:21:56.622Z,1.88
2022-11-21T20:24:23.607Z,1.50
2022-11-21T20:26:50.934Z,1.45
2022-11-21T20:29:18.023Z,0.85
2022-11-21T20:31:45.230Z,1.45
2022-11-21T20:34:16.867Z,1.00
2022-11-21T20:36:44.537Z,1.57
2022-11-21T20:39:17.577Z,1.80
2022-11-21T20:41:47.196Z,1.00
2022-11-21T20:47:09.824Z,0.70
2022-11-21T20:49:36.904Z,0.85
2022-11-21T20:54:51.556Z,1.17
2022-11-21T20:57:18.553Z,1.35
2022-11-21T20:59:55.274Z,2.60
2022-11-21T21:05:04.865Z,1.20
2022-11-21T21:07:31.895Z,0.90
2022-11-21T21:10:02.912Z,0.77
2022-11-21T21:12:34.449Z,0.82
2022-11-21T21:15:01.527Z,1.10
2022-11-21T21:17:28.496Z,0.80
2022-11-21T21:19:59.348Z,1.10
2022-11-21T21:22:28.389Z,0.80
2022-11-21T21:24:55.475Z,0.65
2022-11-21T21:27:22.440Z,2.17
2022-11-21T21:29:50.742Z,1.08
2022-11-21T21:32:20.685Z,0.98
2022-11-21T21:34:47.560Z,1.92
2022-11-21T21:37:17.642Z,1.10
2022-11-21T21:39:44.892Z,1.33
2022-11-21T21:42:17.853Z,0.85
2022-11-21T21:44:44.798Z,1.25
2022-11-21T21:47:16.034Z,1.00
2022-11-21T21:49:43.385Z,1.40
2022-11-21T21:52:11.368Z,0.95
2022-11-21T21:54:38.268Z,1.75
2022-11-21T21:57:09.252Z,1.63
2022-11-21T21:59:36.690Z,0.88
2022-11-21T22:02:04.765Z,1.20
2022-11-21T22:04:34.703Z,1.00
2022-11-21T22:07:03.467Z,1.52
2022-11-21T22:09:30.897Z,1.73
2022-11-21T22:11:58.032Z,1.65
2022-11-21T22:14:25.880Z,0.90
2022-11-21T22:16:56.033Z,0.95
2022-11-21T22:19:23.436Z,1.63
2022-11-21T22:21:50.506Z,1.55
2022-11-21T22:24:25.537Z,1.38
2022-11-21T22:26:53.624Z,1.75
2022-11-21T22:29:23.060Z,1.48
2022-11-21T22:31:50.987Z,1.05
2022-11-21T22:34:18.106Z,1.40
2022-11-21T22:36:50.390Z,1.10
2022-11-21T22:39:18.180Z,1.30
2022-11-21T22:41:46.724Z,0.90
2022-11-21T22:44:13.855Z,2.70
2022-11-21T22:46:41.011Z,0.90
2022-11-21T22:49:10.530Z,1.02
2022-11-21T22:51:37.611Z,0.80
2022-11-21T22:54:06.407Z,1.25
2022-11-21T22:56:33.540Z,1.10
2022-11-21T22:59:03.932Z,1.02
2022-11-21T23:01:34.120Z,1.30
2022-11-21T23:04:01.515Z,1.55
2022-11-21T23:06:28.620Z,1.15
2022-11-21T23:08:57.029Z,0.90
2022-11-21T23:11:33.749Z,1.25
2022-11-21T23:14:03.476Z,0.88
2022-11-21T23:16:30.351Z,1.10
2022-11-21T23:18:57.376Z,1.25
2022-11-21T23:21:24.313Z,2.25
2022-11-21T23:23:51.368Z,1.20
2022-11-21T23:26:18.906Z,1.10
2022-11-21T23:28:45.803Z,0.82
2022-11-21T23:31:12.966Z,1.45
2022-11-21T23:33:39.886Z,0.88
2022-11-21T23:36:07.085Z,1.33
2022-11-21T23:38:33.987Z,1.15
2022-11-21T23:41:01.014Z,0.77
2022-11-21T23:43:27.997Z,1.05
2022-11-21T23:45:55.176Z,1.23
2022-11-21T23:48:24.249Z,0.95
2022-11-21T23:50:51.578Z,0.90
2022-11-21T23:53:19.970Z,0.73
2022-11-21T23:55:50.021Z,1.15
2022-11-21T23:58:17.503Z,0.88
